Time;durP1;ratioP1;P1;durP2;ratioP2;P2;SDS_P1;SDS_P2;PMS_P1;PMS_P2;Temp;Humidity;BMP_temperature;BMP_pressure;BME280_temperature;BME280_humidity;BME280_pressure;Samples;Min_cycle;Max_cycle;Signal;HPM_P1;HPM_P2
2021/11/30 00:01:24;;;;;;;6.68;5.13;;;;;;;6.93;64.56;99777.53;4810303;29;121604;-77
2021/11/30 00:03:50;;;;;;;7.43;5.15;;;;;;;6.99;65.09;99778.47;4826368;28;120937;-76
2021/11/30 00:06:16;;;;;;;6.18;4.68;;;;;;;7.06;64.75;99764.56;4825981;28;119859;-77
2021/11/30 00:08:42;;;;;;;10.43;5.20;;;;;;;7.06;65.03;99757.13;4810654;29;120077;-75
2021/11/30 00:11:11;;;;;;;6.75;4.47;;;;;;;7.15;64.56;99761.13;4820871;28;121720;-74
2021/11/30 00:13:38;;;;;;;7.25;4.55;;;;;;;7.17;65.40;99753.25;4810794;29;119601;-76
2021/11/30 00:16:05;;;;;;;6.72;4.45;;;;;;;7.13;64.78;99742.47;4792621;29;123448;-73
2021/11/30 00:18:33;;;;;;;6.85;4.13;;;;;;;7.20;65.13;99747.66;4818961;28;120307;-76
2021/11/30 00:21:03;;;;;;;6.78;4.15;;;;;;;7.24;65.08;99740.09;4824768;28;120208;-76
2021/11/30 00:23:29;;;;;;;8.30;4.43;;;;;;;7.25;64.66;99729.94;4824030;28;122793;-77
2021/11/30 00:25:58;;;;;;;6.30;3.83;;;;;;;7.20;64.44;99709.47;4820080;28;119755;-77
2021/11/30 00:28:24;;;;;;;6.80;3.67;;;;;;;7.16;64.70;99697.19;4808231;28;121727;-77
2021/11/30 00:30:50;;;;;;;6.85;3.90;;;;;;;7.16;64.93;99684.31;4809660;29;121105;-77
2021/11/30 00:33:16;;;;;;;5.88;3.70;;;;;;;7.23;64.79;99691.44;4825064;28;119431;-77
2021/11/30 00:35:42;;;;;;;7.40;3.85;;;;;;;7.21;65.07;99672.03;4827662;28;122248;-76
2021/11/30 00:38:12;;;;;;;5.55;3.70;;;;;;;7.24;64.84;99674.63;4826452;28;120350;-76
2021/11/30 00:40:42;;;;;;;6.05;4.60;;;;;;;7.26;64.73;99657.81;4802635;28;121810;-76
2021/11/30 00:43:19;;;;;;;7.85;4.07;;;;;;;7.25;64.83;99640.69;4791746;29;122195;-76
2021/11/30 00:45:58;;;;;;;6.72;3.80;;;;;;;7.30;64.63;99631.91;4810272;29;121225;-76
2021/11/30 00:48:31;;;;;;;5.90;3.08;;;;;;;7.29;64.52;99622.19;4835593;28;121060;-77
2021/11/30 00:51:01;;;;;;;5.25;3.15;;;;;;;7.28;64.36;99612.50;4811526;29;122824;-75
2021/11/30 00:53:28;;;;;;;4.63;2.97;;;;;;;7.29;64.57;99607.81;4827351;28;119870;-76
2021/11/30 00:55:53;;;;;;;7.57;3.03;;;;;;;7.27;64.69;99593.84;4812503;29;122917;-76
2021/11/30 00:58:19;;;;;;;5.75;3.10;;;;;;;7.24;64.35;99581.13;4843723;28;119733;-76
2021/11/30 01:00:45;;;;;;;7.30;3.10;;;;;;;7.29;65.21;99594.16;4827625;28;121116;-76
2021/11/30 01:03:14;;;;;;;6.43;2.58;;;;;;;7.33;64.83;99584.66;4812834;28;122735;-75
2021/11/30 01:05:39;;;;;;;3.67;2.10;;;;;;;7.33;65.06;99573.72;4797016;29;119928;-74
2021/11/30 01:08:06;;;;;;;5.75;2.40;;;;;;;7.36;65.49;99563.88;4830428;28;119407;-76
2021/11/30 01:10:32;;;;;;;7.93;2.22;;;;;;;7.39;65.38;99558.25;4825571;28;123344;-76
2021/11/30 01:12:59;;;;;;;4.97;1.70;;;;;;;7.38;65.19;99545.84;4829336;28;119438;-74
2021/11/30 01:15:25;;;;;;;5.28;1.83;;;;;;;7.35;65.54;99526.91;4828480;28;121697;-74
2021/11/30 01:17:51;;;;;;;2.70;1.48;;;;;;;7.43;65.96;99530.81;4798501;28;122627;-75
2021/11/30 01:20:18;;;;;;;4.72;1.70;;;;;;;7.44;65.88;99515.22;4795502;28;121730;-76
2021/11/30 01:22:44;;;;;;;6.32;1.50;;;;;;;7.43;65.64;99497.34;4809933;29;122719;-75
2021/11/30 01:25:11;;;;;;;2.75;1.20;;;;;;;7.50;65.60;99492.31;4810412;29;120443;-74
2021/11/30 01:27:38;;;;;;;3.08;1.30;;;;;;;7.53;65.43;99485.94;4810852;28;121341;-75
2021/11/30 01:30:07;;;;;;;6.50;1.15;;;;;;;7.54;65.35;99473.06;4828977;28;119940;-76
2021/11/30 01:32:33;;;;;;;3.08;1.10;;;;;;;7.54;65.82;99471.06;4811054;28;121521;-76
2021/11/30 01:34:59;;;;;;;5.63;1.45;;;;;;;7.52;66.04;99454.41;4827822;28;120356;-76
2021/11/30 01:37:24;;;;;;;6.90;1.10;;;;;;;7.58;66.30;99451.84;4810128;29;122879;-74
2021/11/30 01:39:52;;;;;;;4.60;1.40;;;;;;;7.59;66.63;99440.47;4831813;28;120248;-75
2021/11/30 01:42:20;;;;;;;4.50;1.35;;;;;;;7.61;66.83;99427.13;4825362;28;120528;-75
2021/11/30 01:45:05;;;;;;;3.67;1.83;;;;;;;7.71;67.13;99416.91;4824714;28;119983;-76
2021/11/30 01:49:59;;;;;;;5.28;2.42;;;;;;;7.86;67.48;99393.19;4828763;28;122810;-74
2021/11/30 01:52:26;;;;;;;7.15;2.55;;;;;;;7.93;68.15;99379.19;4827263;28;119496;-75
2021/11/30 01:54:55;;;;;;;4.18;2.65;;;;;;;7.94;67.80;99355.38;4827860;28;119838;-76
2021/11/30 01:57:24;;;;;;;8.07;2.78;;;;;;;8.02;67.51;99357.28;4830746;28;119679;-76
2021/11/30 01:59:52;;;;;;;6.85;3.53;;;;;;;8.00;68.07;99342.59;4812061;29;121802;-75
2021/11/30 02:02:18;;;;;;;5.97;4.05;;;;;;;8.10;68.71;99352.25;4831077;28;119452;-76
2021/11/30 02:04:44;;;;;;;9.13;3.55;;;;;;;8.13;67.92;99336.91;4812284;29;120486;-76
2021/11/30 02:07:11;;;;;;;10.35;3.95;;;;;;;8.14;68.08;99319.31;4812867;28;120870;-75
2021/11/30 02:09:38;;;;;;;9.23;4.30;;;;;;;8.15;68.34;99315.34;4825431;28;121955;-76
2021/11/30 02:12:09;;;;;;;8.90;4.28;;;;;;;8.19;68.83;99318.66;4814546;28;119709;-74
2021/11/30 02:14:36;;;;;;;11.48;3.70;;;;;;;8.25;68.83;99290.22;4826744;28;119530;-75
2021/11/30 02:17:08;;;;;;;8.30;3.42;;;;;;;8.31;68.50;99282.16;4826640;28;120502;-74
2021/11/30 02:19:42;;;;;;;10.55;3.58;;;;;;;8.36;68.73;99269.84;4813044;29;120228;-75
2021/11/30 02:22:11;;;;;;;9.18;3.15;;;;;;;8.40;68.71;99262.97;4839665;28;122186;-75
2021/11/30 02:24:38;;;;;;;10.82;3.40;;;;;;;8.44;68.83;99254.59;4828291;28;123260;-75
2021/11/30 02:27:04;;;;;;;8.20;2.97;;;;;;;8.49;69.19;99235.56;4830018;28;121676;-75
2021/11/30 02:29:29;;;;;;;8.68;3.10;;;;;;;8.48;69.32;99222.34;4825944;28;119929;-75
2021/11/30 02:31:55;;;;;;;6.88;2.55;;;;;;;8.59;69.36;99223.31;4825233;28;119850;-75
2021/11/30 02:34:21;;;;;;;9.27;2.60;;;;;;;8.56;69.51;99194.19;4828693;28;120424;-74
2021/11/30 02:36:55;;;;;;;10.88;2.80;;;;;;;8.68;69.42;99192.38;4795447;29;122617;-75
2021/11/30 02:39:24;;;;;;;6.80;1.65;;;;;;;8.74;70.03;99167.88;4813594;29;120274;-75
2021/11/30 02:41:51;;;;;;;6.32;1.70;;;;;;;8.85;69.96;99165.31;4832975;28;119868;-75
2021/11/30 02:44:23;;;;;;;10.30;1.80;;;;;;;8.91;70.58;99157.94;4829460;28;121762;-75
2021/11/30 02:46:52;;;;;;;5.60;1.25;;;;;;;8.98;69.97;99146.59;4848701;28;120913;-74
2021/11/30 02:49:20;;;;;;;8.15;1.27;;;;;;;9.03;70.25;99131.53;4829941;28;123453;-75
2021/11/30 02:51:50;;;;;;;6.75;1.20;;;;;;;9.01;70.42;99112.84;4827339;28;120267;-75
2021/11/30 02:54:19;;;;;;;9.07;1.65;;;;;;;9.04;69.23;99092.75;4811661;28;121767;-74
2021/11/30 02:56:48;;;;;;;9.73;2.00;;;;;;;9.08;69.87;99087.81;4845370;28;125106;-74
2021/11/30 02:59:14;;;;;;;10.02;1.95;;;;;;;9.05;70.96;99055.97;4828183;28;120284;-74
2021/11/30 03:01:42;;;;;;;9.93;1.90;;;;;;;9.14;70.32;99064.03;4797531;29;121920;-75
2021/11/30 03:04:14;;;;;;;9.23;1.48;;;;;;;9.23;70.31;99044.75;4831043;28;120498;-75
2021/11/30 03:06:42;;;;;;;6.70;1.67;;;;;;;9.22;70.68;99040.50;4816837;29;122206;-75
2021/11/30 03:09:08;;;;;;;6.32;1.60;;;;;;;9.20;71.08;99031.25;4812597;28;119786;-74
2021/11/30 03:11:34;;;;;;;8.93;1.75;;;;;;;9.25;71.00;99021.63;4815129;29;119756;-75
2021/11/30 03:14:00;;;;;;;6.68;1.45;;;;;;;9.31;70.34;99022.44;4812139;28;121448;-74
2021/11/30 03:16:30;;;;;;;5.53;1.60;;;;;;;9.30;69.77;99005.28;4827443;28;122009;-74
2021/11/30 03:18:56;;;;;;;8.40;1.42;;;;;;;9.33;69.94;99003.56;4797870;28;119759;-74
2021/11/30 03:21:25;;;;;;;5.10;1.40;;;;;;;9.32;69.44;99007.53;4831398;28;119690;-75
2021/11/30 03:23:54;;;;;;;4.57;1.20;;;;;;;9.25;70.71;98973.16;4823025;28;119845;-74
2021/11/30 03:26:20;;;;;;;4.13;1.60;;;;;;;9.31;70.65;98971.22;4815119;29;120002;-75
2021/11/30 03:28:46;;;;;;;7.18;1.40;;;;;;;9.37;70.82;98963.06;4801595;29;123284;-75
2021/11/30 03:31:31;;;;;;;7.88;1.40;;;;;;;9.43;70.13;98964.59;4814503;29;120543;-73
2021/11/30 03:34:01;;;;;;;2.50;1.17;;;;;;;9.40;70.16;98929.25;4815028;29;122281;-74
2021/11/30 03:36:28;;;;;;;4.18;1.30;;;;;;;9.44;70.89;98935.25;4814043;29;122909;-74
2021/11/30 03:38:58;;;;;;;5.28;1.48;;;;;;;9.49;71.62;98913.41;4814070;28;120553;-74
2021/11/30 03:41:23;;;;;;;6.88;1.70;;;;;;;9.54;71.22;98904.50;4829774;29;121673;-74
2021/11/30 03:43:50;;;;;;;8.35;1.67;;;;;;;9.63;71.23;98900.06;4825069;28;122623;-74
2021/11/30 03:46:16;;;;;;;7.25;1.67;;;;;;;9.56;70.61;98895.81;4829294;28;120373;-74
2021/11/30 03:48:42;;;;;;;4.35;1.52;;;;;;;9.68;71.52;98905.59;4830220;29;119796;-75
2021/11/30 03:51:08;;;;;;;4.85;1.63;;;;;;;9.80;71.53;98906.44;4817660;29;119767;-74
2021/11/30 03:53:34;;;;;;;7.95;1.98;;;;;;;9.80;71.22;98896.22;4814633;28;122948;-74
2021/11/30 03:56:03;;;;;;;4.07;1.27;;;;;;;9.92;71.54;98875.13;4797928;29;121216;-73
2021/11/30 03:58:28;;;;;;;5.40;1.25;;;;;;;9.93;71.57;98867.66;4830966;28;119875;-74
2021/11/30 04:00:57;;;;;;;4.15;1.40;;;;;;;10.03;70.39;98867.00;4811831;28;121162;-74
2021/11/30 04:03:28;;;;;;;7.47;1.50;;;;;;;9.98;70.12;98862.22;4829891;28;122895;-75
2021/11/30 04:05:55;;;;;;;4.05;1.67;;;;;;;10.04;70.47;98848.56;4828078;28;121254;-75
2021/11/30 04:08:20;;;;;;;10.68;1.80;;;;;;;9.98;70.71;98836.84;4827879;28;120542;-75
2021/11/30 04:10:46;;;;;;;10.13;2.28;;;;;;;10.09;71.04;98843.09;4796899;29;124816;-75
2021/11/30 04:13:13;;;;;;;9.90;1.75;;;;;;;10.24;71.64;98842.97;4848870;28;120251;-75
2021/11/30 04:15:39;;;;;;;12.43;1.80;;;;;;;10.37;71.65;98846.00;4828736;28;121059;-75
2021/11/30 04:18:07;;;;;;;14.32;2.00;;;;;;;10.50;72.17;98836.56;4829665;28;120019;-75
2021/11/30 04:20:36;;;;;;;13.48;2.10;;;;;;;10.66;72.23;98844.09;4826801;28;121384;-73
2021/11/30 04:23:05;;;;;;;20.20;2.65;;;;;;;10.72;72.24;98828.41;4825222;28;122653;-73
2021/11/30 04:25:31;;;;;;;18.08;2.80;;;;;;;10.82;71.90;98839.88;4827471;28;120040;-73
2021/11/30 04:27:56;;;;;;;23.63;3.05;;;;;;;10.89;71.60;98834.69;4827463;28;121644;-73
2021/11/30 04:30:22;;;;;;;13.27;2.20;;;;;;;10.93;71.20;98842.66;4829115;28;120226;-74
2021/11/30 04:32:55;;;;;;;17.77;2.17;;;;;;;10.94;71.08;98825.69;4792570;28;119668;-74
2021/11/30 04:35:21;;;;;;;19.25;2.38;;;;;;;10.96;70.76;98820.47;4799709;29;120043;-74
2021/11/30 04:37:49;;;;;;;18.75;2.70;;;;;;;10.97;70.50;98832.19;4828671;28;119916;-74
2021/11/30 04:40:18;;;;;;;22.38;2.90;;;;;;;10.91;70.00;98821.22;4813804;29;122034;-74
2021/11/30 04:42:46;;;;;;;18.17;2.40;;;;;;;11.00;70.34;98828.44;4812262;29;122232;-74
2021/11/30 04:45:29;;;;;;;21.77;3.17;;;;;;;11.00;69.66;98823.69;4829103;28;120679;-74
2021/11/30 04:47:55;;;;;;;17.45;2.60;;;;;;;10.92;70.03;98819.97;4828870;29;122035;-74
2021/11/30 04:50:30;;;;;;;22.50;3.00;;;;;;;11.02;69.59;98834.19;4809786;29;123128;-74
2021/11/30 04:52:58;;;;;;;21.95;3.30;;;;;;;11.01;69.57;98832.69;4812457;28;119702;-74
2021/11/30 04:55:26;;;;;;;26.73;3.28;;;;;;;11.03;69.30;98843.91;4831688;28;121684;-74
2021/11/30 04:57:59;;;;;;;23.50;3.13;;;;;;;11.04;69.13;98846.16;4843644;28;119677;-74
2021/11/30 05:00:26;;;;;;;25.90;3.30;;;;;;;10.94;69.39;98824.94;4826532;28;120720;-74
2021/11/30 05:02:52;;;;;;;22.25;3.88;;;;;;;11.03;69.33;98838.41;4813618;29;122669;-74
2021/11/30 05:05:18;;;;;;;22.88;3.20;;;;;;;10.97;68.85;98818.47;4810575;29;120838;-74
2021/11/30 05:07:45;;;;;;;23.75;3.45;;;;;;;10.99;68.94;98827.69;4844659;28;120099;-74
2021/11/30 05:10:13;;;;;;;24.08;3.30;;;;;;;10.97;68.90;98834.94;4811149;29;121726;-73
2021/11/30 05:12:40;;;;;;;23.17;3.50;;;;;;;11.00;68.54;98839.41;4796335;29;119827;-74
2021/11/30 05:15:07;;;;;;;21.65;3.20;;;;;;;10.95;68.33;98816.22;4797273;29;121799;-74
2021/11/30 05:17:33;;;;;;;22.35;3.28;;;;;;;10.97;68.19;98829.44;4848370;28;122551;-76
2021/11/30 05:20:09;;;;;;;31.05;3.90;;;;;;;10.91;67.98;98834.19;4810618;28;120069;-72
2021/11/30 05:22:35;;;;;;;28.65;3.53;;;;;;;10.83;67.52;98833.91;4796254;29;123021;-73
2021/11/30 05:25:01;;;;;;;20.80;3.90;;;;;;;10.83;67.34;98827.66;4827518;28;122071;-73
2021/11/30 05:27:28;;;;;;;27.02;4.00;;;;;;;10.76;67.54;98831.66;4810850;29;119814;-76
2021/11/30 05:29:56;;;;;;;18.73;2.97;;;;;;;10.76;67.59;98837.13;4826313;28;120548;-74
2021/11/30 05:32:22;;;;;;;25.42;3.60;;;;;;;10.70;67.65;98839.13;4810771;29;119729;-74
2021/11/30 05:34:48;;;;;;;31.10;4.47;;;;;;;10.73;67.44;98843.63;4822866;28;120060;-74
2021/11/30 05:37:17;;;;;;;22.52;4.18;;;;;;;10.65;67.04;98839.88;4824828;28;120663;-74
2021/11/30 05:39:42;;;;;;;27.17;4.43;;;;;;;10.65;67.00;98848.84;4799463;29;120118;-74
2021/11/30 05:42:13;;;;;;;30.85;4.68;;;;;;;10.66;66.93;98866.78;4809810;28;122745;-74
2021/11/30 05:44:39;;;;;;;27.05;4.13;;;;;;;10.60;66.19;98906.38;4796742;29;120993;-74
2021/11/30 05:47:05;;;;;;;25.73;3.90;;;;;;;10.55;66.00;98899.63;4830222;28;119990;-74
2021/11/30 05:49:30;;;;;;;16.13;2.92;;;;;;;10.46;65.34;98875.19;4794205;29;121816;-74
2021/11/30 05:51:56;;;;;;;15.85;2.80;;;;;;;10.47;65.34;98887.66;4818278;28;119876;-72
2021/11/30 05:54:22;;;;;;;19.13;2.70;;;;;;;10.40;65.02;98888.09;4822667;28;122448;-73
2021/11/30 05:56:47;;;;;;;18.02;2.95;;;;;;;10.38;65.42;98876.88;4822236;28;122614;-73
2021/11/30 05:59:15;;;;;;;16.92;2.83;;;;;;;10.33;65.01;98875.63;4828107;28;119865;-73
2021/11/30 06:01:50;;;;;;;20.80;2.22;;;;;;;10.34;65.14;98870.88;4830672;28;121537;-74
2021/11/30 06:04:15;;;;;;;18.92;3.40;;;;;;;10.26;65.42;98875.34;4829113;28;120035;-74
2021/11/30 06:06:41;;;;;;;13.23;2.72;;;;;;;10.29;65.03;98869.63;4811260;29;120975;-74
2021/11/30 06:09:09;;;;;;;18.98;3.00;;;;;;;10.25;65.16;98874.59;4828842;28;122690;-74
2021/11/30 06:11:36;;;;;;;19.00;3.33;;;;;;;10.22;64.90;98872.09;4797354;29;120039;-74
2021/11/30 06:14:02;;;;;;;24.83;3.38;;;;;;;10.22;65.27;98863.88;4830842;28;121148;-73
2021/11/30 06:16:28;;;;;;;18.10;3.25;;;;;;;10.18;65.01;98858.59;4814787;29;121351;-74
2021/11/30 06:18:57;;;;;;;28.15;3.75;;;;;;;10.24;64.53;98870.38;4813044;28;119658;-73
2021/11/30 06:21:24;;;;;;;25.92;3.70;;;;;;;10.24;64.69;98870.38;4815789;29;125287;-76
2021/11/30 06:23:50;;;;;;;28.50;4.28;;;;;;;10.26;65.13;98873.34;4833879;28;121533;-74
2021/11/30 06:26:17;;;;;;;19.88;3.70;;;;;;;10.26;65.05;98873.34;4812841;28;122664;-74
2021/11/30 06:28:46;;;;;;;37.83;4.97;;;;;;;10.26;64.73;98878.09;4830472;28;121470;-74
2021/11/30 06:31:15;;;;;;;31.48;4.20;;;;;;;10.29;64.54;98888.81;4813901;28;119700;-74
2021/11/30 06:33:41;;;;;;;21.38;3.70;;;;;;;10.24;63.51;98892.28;4813617;29;121946;-74
2021/11/30 06:36:07;;;;;;;25.98;4.20;;;;;;;10.21;62.18;98887.78;4799020;29;122921;-74
2021/11/30 06:38:33;;;;;;;27.77;4.38;;;;;;;10.18;61.47;98915.38;4831634;28;120443;-73
2021/11/30 06:40:59;;;;;;;26.02;4.25;;;;;;;10.11;61.17;98895.41;4814365;28;121785;-74
2021/11/30 06:43:30;;;;;;;27.75;4.40;;;;;;;10.17;61.82;98903.66;4813200;29;121749;-75
2021/11/30 06:45:56;;;;;;;25.45;4.35;;;;;;;10.18;62.05;98893.47;4835309;28;121960;-74
2021/11/30 06:48:22;;;;;;;31.25;3.97;;;;;;;10.11;62.43;98898.16;4829945;28;121259;-74
2021/11/30 06:50:51;;;;;;;29.33;4.32;;;;;;;10.16;61.86;98899.41;4815186;29;120775;-73
2021/11/30 06:53:18;;;;;;;19.40;3.60;;;;;;;10.13;61.69;98903.88;4829786;28;121566;-74
2021/11/30 06:55:47;;;;;;;30.15;3.80;;;;;;;10.06;61.55;98896.13;4843858;28;121298;-73
2021/11/30 06:58:13;;;;;;;24.50;4.10;;;;;;;10.09;61.84;98902.63;4827865;28;119861;-73
2021/11/30 07:00:42;;;;;;;24.95;3.80;;;;;;;10.09;61.22;98908.09;4797941;29;122024;-74
2021/11/30 07:03:08;;;;;;;22.63;3.85;;;;;;;10.08;61.90;98906.59;4828518;28;119865;-74
2021/11/30 07:05:41;;;;;;;28.25;3.97;;;;;;;10.12;61.43;98929.03;4833473;28;121264;-74
2021/11/30 07:08:18;;;;;;;24.38;3.50;;;;;;;10.08;61.72;98917.56;4828914;28;119838;-74
2021/11/30 07:15:44;;;;;;;25.40;3.95;;;;;;;10.14;61.96;98932.03;4830641;28;123427;-74
2021/11/30 07:18:12;;;;;;;22.95;3.85;;;;;;;10.15;61.44;98919.84;4811941;29;122124;-74
2021/11/30 07:20:42;;;;;;;23.73;3.47;;;;;;;10.13;60.84;98908.63;4813622;29;122020;-72
2021/11/30 07:23:08;;;;;;;26.33;3.42;;;;;;;10.10;60.26;98904.13;4830511;28;122630;-73
2021/11/30 07:25:34;;;;;;;22.98;3.63;;;;;;;10.12;60.55;98890.69;4807090;29;120520;-74
2021/11/30 07:28:01;;;;;;;27.27;4.57;;;;;;;10.04;60.56;98903.34;4811347;28;120837;-74
2021/11/30 07:30:27;;;;;;;18.17;3.80;;;;;;;10.09;59.89;98913.56;4811912;29;119880;-75
2021/11/30 07:32:52;;;;;;;27.08;4.57;;;;;;;10.07;59.26;98910.59;4843699;28;119534;-75
2021/11/30 07:35:20;;;;;;;26.63;3.95;;;;;;;10.07;59.35;98937.97;4813327;29;121358;-74
2021/11/30 07:37:49;;;;;;;29.88;4.47;;;;;;;10.10;61.02;98921.31;4826532;28;119764;-75
2021/11/30 07:40:16;;;;;;;26.05;4.10;;;;;;;10.13;60.40;98911.34;4841171;28;120815;-74
2021/11/30 07:42:43;;;;;;;28.30;4.78;;;;;;;10.03;60.35;98921.03;4827355;29;123009;-75
2021/11/30 07:45:11;;;;;;;25.65;4.25;;;;;;;10.05;60.62;98910.31;4813270;28;119780;-76
2021/11/30 07:47:38;;;;;;;24.38;4.50;;;;;;;10.04;60.99;98900.59;4826977;28;122486;-76
2021/11/30 07:50:09;;;;;;;31.25;4.82;;;;;;;10.06;60.39;98914.56;4830810;28;122939;-75
2021/11/30 07:52:43;;;;;;;32.55;4.78;;;;;;;10.05;60.75;98918.53;4826116;29;121018;-74
2021/11/30 07:55:13;;;;;;;26.17;4.60;;;;;;;10.09;61.36;98919.06;4825016;28;119796;-75
2021/11/30 07:57:39;;;;;;;28.33;4.32;;;;;;;10.07;61.12;98914.06;4811149;29;120325;-75
2021/11/30 08:00:11;;;;;;;24.40;4.78;;;;;;;10.13;61.07;98914.84;4811903;29;121879;-75
2021/11/30 08:02:37;;;;;;;25.63;4.10;;;;;;;10.11;60.98;98906.38;4826721;28;119815;-76
2021/11/30 08:05:05;;;;;;;32.83;5.50;;;;;;;10.16;60.27;98911.13;4794363;29;120111;-75
2021/11/30 08:07:31;;;;;;;27.73;4.63;;;;;;;10.20;59.15;98904.69;4843531;28;122787;-75
2021/11/30 08:10:00;;;;;;;31.73;6.20;;;;;;;10.21;58.60;98920.66;4794976;28;121843;-75
2021/11/30 08:12:26;;;;;;;26.30;4.57;;;;;;;10.23;57.82;98928.38;4802442;28;121187;-75
2021/11/30 08:14:55;;;;;;;23.20;4.35;;;;;;;10.25;58.71;98920.44;4789695;29;123675;-75
2021/11/30 08:17:24;;;;;;;27.90;5.13;;;;;;;10.28;56.96;98920.19;4838445;28;120587;-75
2021/11/30 08:19:50;;;;;;;25.17;5.28;;;;;;;10.29;55.72;98924.44;4829010;28;119983;-74
2021/11/30 08:22:16;;;;;;;30.00;5.25;;;;;;;10.31;55.72;98935.66;4799177;28;122956;-74
2021/11/30 08:24:42;;;;;;;23.52;4.30;;;;;;;10.34;54.65;98928.44;4812889;29;119788;-75
2021/11/30 08:27:10;;;;;;;28.02;4.57;;;;;;;10.36;56.06;98909.50;4830616;28;122095;-74
2021/11/30 08:29:40;;;;;;;25.83;4.38;;;;;;;10.40;56.10;98921.72;4812129;29;123161;-75
2021/11/30 08:32:08;;;;;;;31.30;5.53;;;;;;;10.44;55.80;98914.06;4826797;28;120582;-75
2021/11/30 08:34:39;;;;;;;26.65;4.78;;;;;;;10.48;55.67;98915.81;4816681;29;119592;-75
2021/11/30 08:37:07;;;;;;;27.63;4.55;;;;;;;10.50;55.74;98922.28;4809006;28;119533;-75
2021/11/30 08:39:33;;;;;;;30.73;4.57;;;;;;;10.47;55.37;98908.81;4808389;28;121794;-76
2021/11/30 08:42:03;;;;;;;30.90;4.72;;;;;;;10.52;55.54;98930.78;4822173;28;120471;-74
2021/11/30 08:44:31;;;;;;;33.67;4.85;;;;;;;10.55;54.97;98926.28;4827459;28;119837;-74
2021/11/30 08:46:58;;;;;;;27.23;4.43;;;;;;;10.53;54.93;98934.25;4829651;28;120135;-74
2021/11/30 08:49:28;;;;;;;28.05;5.22;;;;;;;10.48;54.46;98924.78;4829109;28;123903;-75
2021/11/30 08:51:56;;;;;;;24.70;4.53;;;;;;;10.55;54.75;98938.00;4808678;28;119885;-74
2021/11/30 08:54:28;;;;;;;20.65;4.20;;;;;;;10.58;55.15;98917.84;4809494;29;121939;-75
2021/11/30 08:56:54;;;;;;;28.80;4.32;;;;;;;10.60;54.90;98914.59;4816755;29;123109;-75
2021/11/30 08:59:20;;;;;;;27.95;4.57;;;;;;;10.59;56.04;98913.09;4810099;29;121346;-75
2021/11/30 09:01:46;;;;;;;22.33;4.43;;;;;;;10.61;55.85;98927.06;4825460;28;120915;-75
2021/11/30 09:04:12;;;;;;;29.95;5.35;;;;;;;10.64;56.48;98921.34;4827001;28;120596;-75
2021/11/30 09:06:41;;;;;;;33.83;5.03;;;;;;;10.70;56.42;98921.38;4817852;28;121726;-75
2021/11/30 09:09:08;;;;;;;30.02;4.63;;;;;;;10.70;56.04;98918.63;4796558;28;121180;-75
2021/11/30 09:11:35;;;;;;;27.70;5.22;;;;;;;10.75;55.67;98928.88;4778240;29;120874;-75
2021/11/30 09:14:01;;;;;;;32.38;5.22;;;;;;;10.76;55.98;98931.13;4823170;29;120658;-75
2021/11/30 09:16:30;;;;;;;28.52;4.72;;;;;;;10.81;56.49;98918.66;4827518;28;119846;-75
2021/11/30 09:18:59;;;;;;;29.17;4.65;;;;;;;10.90;56.50;98926.69;4812920;28;121776;-75
2021/11/30 09:21:28;;;;;;;30.27;4.60;;;;;;;10.90;56.58;98917.72;4823257;28;121151;-75
2021/11/30 09:23:56;;;;;;;31.67;5.38;;;;;;;10.90;56.13;98923.19;4839833;28;120090;-75
2021/11/30 09:26:23;;;;;;;31.42;4.53;;;;;;;10.86;54.50;98906.19;4826467;28;119785;-76
2021/11/30 09:28:50;;;;;;;31.63;4.63;;;;;;;10.89;54.96;98919.69;4794929;29;122071;-75
2021/11/30 09:31:16;;;;;;;36.92;5.82;;;;;;;10.85;54.27;98924.66;4797914;29;120188;-75
2021/11/30 09:33:43;;;;;;;24.45;4.32;;;;;;;10.90;55.75;98932.16;4825772;28;120461;-75
2021/11/30 09:36:10;;;;;;;29.65;5.18;;;;;;;10.88;55.60;98934.63;4824546;28;122931;-74
2021/11/30 09:38:37;;;;;;;35.97;5.28;;;;;;;10.94;54.78;98959.34;4812400;29;119911;-75
2021/11/30 09:41:03;;;;;;;23.23;4.50;;;;;;;10.89;54.81;98957.34;4808809;29;122176;-75
2021/11/30 09:43:32;;;;;;;27.42;4.65;;;;;;;10.91;55.41;98985.03;4812357;28;120187;-75
2021/11/30 09:45:59;;;;;;;19.48;4.20;;;;;;;10.85;55.81;98993.22;4824353;28;119606;-75
2021/11/30 09:48:27;;;;;;;22.30;4.68;;;;;;;10.78;55.77;98974.50;4827521;28;122798;-74
2021/11/30 09:50:53;;;;;;;32.88;4.65;;;;;;;10.69;56.53;98953.53;4810866;28;120367;-75
2021/11/30 09:53:20;;;;;;;29.52;4.85;;;;;;;10.68;56.41;98962.25;4810665;28;121648;-75
2021/11/30 09:55:47;;;;;;;33.25;4.80;;;;;;;10.67;56.52;98974.47;4826981;28;120410;-74
2021/11/30 09:58:14;;;;;;;31.80;4.55;;;;;;;10.70;56.92;98970.72;4817137;29;119785;-75
2021/11/30 10:00:42;;;;;;;25.50;4.72;;;;;;;10.69;56.27;98971.97;4796752;29;121534;-75
2021/11/30 10:03:09;;;;;;;28.52;4.93;;;;;;;10.74;56.30;98982.22;4810244;28;120173;-75
2021/11/30 10:05:36;;;;;;;28.13;4.82;;;;;;;10.71;56.95;98964.00;4805984;29;121771;-75
2021/11/30 10:08:02;;;;;;;24.38;4.40;;;;;;;10.76;57.01;98979.72;4806465;29;122781;-76
2021/11/30 10:10:33;;;;;;;27.77;4.72;;;;;;;10.81;57.53;98981.75;4806809;29;121245;-75
2021/11/30 10:12:59;;;;;;;20.45;3.88;;;;;;;10.81;56.53;98992.72;4821817;28;119690;-75
2021/11/30 10:15:30;;;;;;;13.30;3.17;;;;;;;10.72;57.00;99001.16;4824242;28;119944;-75
2021/11/30 10:18:13;;;;;;;16.17;3.25;;;;;;;10.73;56.90;98989.69;4824652;28;120169;-75
2021/11/30 10:20:38;;;;;;;18.95;3.22;;;;;;;10.71;56.16;98980.47;4821831;28;119879;-75
2021/11/30 10:23:05;;;;;;;16.20;2.95;;;;;;;10.66;56.15;98976.47;4829140;28;119845;-74
2021/11/30 10:25:38;;;;;;;20.42;3.78;;;;;;;10.70;56.27;98982.44;4807348;29;120650;-75
2021/11/30 10:28:08;;;;;;;20.55;3.35;;;;;;;10.60;57.30;98970.19;4824243;29;119925;-75
2021/11/30 10:30:40;;;;;;;23.67;4.03;;;;;;;10.67;56.79;98985.44;4794231;29;119796;-75
2021/11/30 10:33:16;;;;;;;20.45;3.88;;;;;;;10.75;57.12;98989.94;4810317;28;121842;-74
2021/11/30 10:35:43;;;;;;;24.58;4.88;;;;;;;10.75;57.74;98987.22;4807846;29;120299;-75
2021/11/30 10:38:11;;;;;;;31.35;4.25;;;;;;;10.75;57.52;98994.69;4799700;28;119490;-75
2021/11/30 10:40:40;;;;;;;23.35;4.25;;;;;;;10.75;57.92;99009.16;4807341;28;121208;-74
2021/11/30 10:43:09;;;;;;;22.02;4.60;;;;;;;10.75;58.14;99011.88;4826157;28;121142;-75
2021/11/30 10:45:34;;;;;;;24.50;4.15;;;;;;;10.79;56.97;99006.16;4842880;28;121369;-74
2021/11/30 10:48:15;;;;;;;25.63;4.65;;;;;;;10.82;57.00;98977.00;4823379;28;119776;-76
2021/11/30 10:50:41;;;;;;;23.08;3.70;;;;;;;10.84;57.06;98982.75;4808969;28;119713;-74
2021/11/30 10:53:19;;;;;;;25.80;3.58;;;;;;;10.84;55.51;98994.47;4809564;29;122399;-74
2021/11/30 10:55:47;;;;;;;20.33;3.50;;;;;;;10.86;55.02;98997.47;4821579;28;121711;-74
2021/11/30 10:58:14;;;;;;;23.17;3.45;;;;;;;10.89;55.73;99002.00;4811207;28;120519;-75
2021/11/30 11:00:40;;;;;;;22.95;3.67;;;;;;;10.93;54.97;99004.50;4841560;28;119850;-76
2021/11/30 11:05:40;;;;;;;24.85;3.70;;;;;;;11.07;55.33;98998.78;4829555;28;120455;-75
2021/11/30 11:08:10;;;;;;;25.38;4.72;;;;;;;11.03;55.52;98979.06;4835048;28;121768;-75
2021/11/30 11:10:50;;;;;;;20.38;3.80;;;;;;;11.19;55.75;98976.88;4830476;28;122096;-72
2021/11/30 11:13:22;;;;;;;21.75;4.45;;;;;;;11.21;54.55;98974.41;4827815;28;120056;-76
2021/11/30 11:15:49;;;;;;;27.95;4.40;;;;;;;11.29;54.35;99016.56;4831722;28;120465;-76
2021/11/30 11:18:33;;;;;;;28.02;4.68;;;;;;;11.30;55.86;99018.06;4797561;29;121410;-77
2021/11/30 11:21:10;;;;;;;59.92;6.30;;;;;;;11.26;57.05;99069.72;4808734;29;120592;-76
2021/11/30 11:23:42;;;;;;;29.42;4.65;;;;;;;11.02;58.35;99056.38;4820899;28;120397;-75
2021/11/30 11:26:17;;;;;;;21.25;3.58;;;;;;;10.69;59.46;99067.94;4793455;29;121579;-77
2021/11/30 11:28:44;;;;;;;27.23;3.35;;;;;;;10.38;60.19;99055.75;4843808;28;120279;-77
2021/11/30 11:31:09;;;;;;;18.98;3.45;;;;;;;10.21;60.73;99043.97;4810810;29;120736;-75
2021/11/30 11:33:35;;;;;;;20.60;3.17;;;;;;;10.13;62.06;99040.13;4823416;28;119456;-78
2021/11/30 11:36:04;;;;;;;21.88;3.85;;;;;;;10.02;61.95;99053.72;4807267;28;121376;-74